Pembroke Township, Illinois
Current Conditions -  °F | °C
As of 8:55 AM on Tuesday 21 Oct 2014 (Local Time) from KIKK Reporting Station
Scattered Clouds Scattered Clouds  
Wind Chill: 51°   Ceiling: Unl
Heat Index: 51°   Visibility: 10mi
Dew Point: 41°   Wind: 13mph
Humidity: 70%   Direction: 360°N
Pressure: 30.13"   Gusts: 17mph
Location:  41.06°N, 87.59°W
Report Text: KIKK 211355Z AUTO 36011G15KT 10SM SCT050 10/05 A3013 RMK AO2 T01030051
Loading
Personal Weather Stations






























Interactive Weather Map
Tropical Storm Tracking
New forecast layout! Learn more

10-Day Weather Forecast

Advertisements
Track Severe Weather on mobile